Time;durP1;ratioP1;P1;durP2;ratioP2;P2;SDS_P1;SDS_P2;PMS_P1;PMS_P2;Temp;Humidity;BMP_temperature;BMP_pressure;BME280_temperature;BME280_humidity;BME280_pressure;Samples;Min_cycle;Max_cycle;Signal;HPM_P1;HPM_P2
2022/06/06 00:00:06;;;;;;;13.85;12.35;;;;;;;11.07;63.69;97280.35;1704971;83;26068;-71
2022/06/06 00:02:36;;;;;;;13.32;11.93;;;;;;;11.01;63.89;97283.38;1708675;83;25798;-73
2022/06/06 00:05:04;;;;;;;14.53;12.10;;;;;;;10.93;64.02;97287.70;1694687;83;26009;-71
2022/06/06 00:07:31;;;;;;;13.60;11.57;;;;;;;10.91;64.15;97281.69;1694577;83;27419;-71
2022/06/06 00:09:57;;;;;;;13.60;11.75;;;;;;;10.87;64.30;97281.80;1700409;83;25624;-72
2022/06/06 00:12:24;;;;;;;12.82;11.50;;;;;;;10.89;64.57;97278.89;1700281;83;25973;-71
2022/06/06 00:14:51;;;;;;;15.98;12.47;;;;;;;10.86;64.61;97293.67;1694535;83;25455;-71
2022/06/06 00:17:18;;;;;;;16.95;12.60;;;;;;;10.86;64.72;97284.74;1685745;83;25818;-73
2022/06/06 00:19:45;;;;;;;14.63;11.78;;;;;;;10.80;64.73;97284.55;1701984;83;28177;-74
2022/06/06 00:22:11;;;;;;;13.20;11.83;;;;;;;10.78;64.78;97289.85;1701378;83;25853;-71
2022/06/06 00:24:38;;;;;;;13.78;11.85;;;;;;;10.76;64.99;97294.11;1697766;83;25798;-71
2022/06/06 00:27:05;;;;;;;15.50;12.60;;;;;;;10.77;64.99;97289.02;1696823;83;25414;-71
2022/06/06 00:29:35;;;;;;;13.22;11.63;;;;;;;10.75;65.08;97287.58;1698165;83;27014;-71
2022/06/06 00:34:50;;;;;;;14.93;11.60;;;;;;;10.75;65.28;97288.92;1710660;83;25729;-72
2022/06/06 00:37:27;;;;;;;12.98;11.43;;;;;;;10.76;65.40;97282.48;1725177;80;26792;-72
2022/06/06 00:39:55;;;;;;;14.05;11.50;;;;;;;10.75;65.42;97278.13;1760655;80;26295;-72
2022/06/06 00:42:33;;;;;;;15.98;12.63;;;;;;;10.72;65.51;97283.98;1770362;80;25664;-71
2022/06/06 00:45:32;;;;;;;13.88;12.10;;;;;;;10.69;65.59;97269.55;1762935;80;27412;-71
2022/06/06 00:48:27;;;;;;;14.10;12.18;;;;;;;10.66;65.71;97269.45;1750912;80;25894;-72
2022/06/06 00:51:12;;;;;;;14.63;11.53;;;;;;;10.59;65.96;97270.02;1765873;80;25761;-71
2022/06/06 00:53:55;;;;;;;14.15;11.90;;;;;;;10.57;66.02;97267.22;1743204;80;26208;-71
2022/06/06 00:56:42;;;;;;;14.50;11.95;;;;;;;10.57;66.09;97262.66;1753869;80;25712;-71
2022/06/06 00:59:17;;;;;;;12.82;11.48;;;;;;;10.57;66.13;97267.22;1758744;80;28199;-73
2022/06/06 01:01:44;;;;;;;14.47;12.23;;;;;;;10.54;66.29;97259.55;1763748;80;25756;-71
2022/06/06 01:04:13;;;;;;;12.37;11.08;;;;;;;10.51;66.35;97264.02;1766604;80;25266;-71
2022/06/06 01:06:44;;;;;;;14.68;11.40;;;;;;;10.45;66.48;97261.14;1744617;80;25791;-74
2022/06/06 01:09:14;;;;;;;12.55;11.25;;;;;;;10.46;66.54;97266.02;1750691;80;25748;-73
2022/06/06 01:11:48;;;;;;;12.73;11.43;;;;;;;10.44;66.67;97265.41;1766031;81;27429;-73
2022/06/06 01:14:19;;;;;;;11.63;10.32;;;;;;;10.45;66.73;97277.34;1750857;80;25786;-71
2022/06/06 01:17:25;;;;;;;12.18;10.78;;;;;;;10.45;66.76;97280.56;1741287;80;25679;-71
2022/06/06 01:20:18;;;;;;;12.18;10.93;;;;;;;10.40;66.81;97281.19;1770389;80;25710;-73
2022/06/06 01:23:20;;;;;;;11.45;10.35;;;;;;;10.41;66.89;97288.23;1758355;80;25690;-74
2022/06/06 01:26:10;;;;;;;11.90;10.70;;;;;;;10.39;66.97;97288.14;1742539;80;34296;-71
2022/06/06 01:29:09;;;;;;;12.20;10.95;;;;;;;10.40;67.02;97297.38;1724479;81;25721;-72
2022/06/06 01:32:02;;;;;;;12.70;11.38;;;;;;;10.42;67.10;97291.77;1711509;81;25723;-72
2022/06/06 01:34:31;;;;;;;;;;;;;;;10.37;67.19;97289.73;1667643;84;26044;-74
2022/06/06 01:36:58;;;;;;;12.53;10.72;;;;;;;10.32;67.49;97286.83;1661900;84;25798;-73
2022/06/06 01:39:29;;;;;;;12.88;11.43;;;;;;;10.23;67.29;97284.06;1691661;83;27424;-73
2022/06/06 01:42:13;;;;;;;11.68;10.48;;;;;;;10.18;67.43;97282.50;1675939;84;25380;-71
2022/06/06 01:44:45;;;;;;;13.83;10.82;;;;;;;10.17;67.46;97286.20;1654126;85;25742;-71
2022/06/06 01:47:16;;;;;;;12.80;11.38;;;;;;;10.13;67.60;97286.86;1661883;85;25747;-71
2022/06/06 01:49:45;;;;;;;11.83;10.60;;;;;;;10.14;67.73;97288.52;1657768;85;25995;-72
2022/06/06 01:52:15;;;;;;;13.05;10.82;;;;;;;10.11;67.62;97284.38;1663613;85;27538;-73
2022/06/06 01:54:43;;;;;;;12.28;10.65;;;;;;;10.03;67.43;97282.71;1657751;85;25821;-73
2022/06/06 01:57:14;;;;;;;12.47;10.18;;;;;;;9.93;67.59;97287.72;1664895;85;25865;-71
2022/06/06 01:59:40;;;;;;;12.80;11.50;;;;;;;9.91;67.81;97296.52;1663079;85;25878;-71
2022/06/06 02:02:08;;;;;;;13.60;11.25;;;;;;;9.92;67.91;97298.70;1662901;85;25838;-74
2022/06/06 02:04:35;;;;;;;12.10;10.90;;;;;;;9.95;67.95;97303.69;1663849;86;27316;-74
2022/06/06 02:07:03;;;;;;;12.28;10.93;;;;;;;9.95;68.01;97291.55;1655035;86;25736;-71
2022/06/06 02:09:31;;;;;;;12.23;10.75;;;;;;;9.95;67.96;97292.90;1655506;86;26961;-71
2022/06/06 02:12:00;;;;;;;13.55;10.68;;;;;;;9.93;68.02;97295.80;1652223;85;25775;-72
2022/06/06 02:14:28;;;;;;;15.23;12.00;;;;;;;9.89;68.08;97300.50;1602792;89;25745;-71
2022/06/06 02:16:55;;;;;;;13.25;11.90;;;;;;;9.90;68.27;97308.34;1567913;91;27618;-71
2022/06/06 02:19:22;;;;;;;13.55;11.18;;;;;;;9.89;68.35;97301.84;1567842;91;25851;-71
2022/06/06 02:21:48;;;;;;;14.18;11.90;;;;;;;9.88;68.39;97297.48;1589846;88;25857;-71
2022/06/06 02:24:15;;;;;;;15.43;12.13;;;;;;;9.83;68.45;97292.71;1594943;88;25888;-71
2022/06/06 02:26:42;;;;;;;13.10;11.78;;;;;;;9.80;68.43;97285.55;1595231;88;25460;-72
2022/06/06 02:29:08;;;;;;;15.50;12.85;;;;;;;9.76;68.63;97286.51;1595777;88;28110;-71
2022/06/06 02:31:37;;;;;;;13.43;11.73;;;;;;;9.78;68.76;97293.84;1639177;86;25839;-72
2022/06/06 02:34:06;;;;;;;15.95;11.85;;;;;;;9.77;68.77;97291.38;1652128;86;25861;-72
2022/06/06 02:36:34;;;;;;;13.28;11.50;;;;;;;9.74;68.84;97293.97;1651954;85;25955;-74
2022/06/06 02:39:01;;;;;;;13.35;11.93;;;;;;;9.74;68.87;97294.80;1653762;85;25476;-72
2022/06/06 02:41:28;;;;;;;13.68;12.35;;;;;;;9.75;68.92;97288.37;1653221;85;27484;-71
2022/06/06 02:43:56;;;;;;;15.00;11.48;;;;;;;9.79;69.07;97287.94;1651597;85;25787;-71
2022/06/06 02:46:23;;;;;;;18.77;12.85;;;;;;;9.83;69.14;97275.70;1651887;85;25974;-71
2022/06/06 02:48:49;;;;;;;17.00;13.95;;;;;;;9.83;69.16;97271.66;1653230;85;25727;-71
2022/06/06 02:51:16;;;;;;;13.80;12.40;;;;;;;9.86;69.24;97273.95;1655566;85;25702;-75
2022/06/06 02:53:43;;;;;;;15.55;13.32;;;;;;;9.82;69.22;97276.74;1651945;85;27746;-71
2022/06/06 02:56:09;;;;;;;14.58;12.43;;;;;;;9.80;69.40;97265.33;1654070;85;25541;-71
2022/06/06 02:58:36;;;;;;;13.75;12.28;;;;;;;9.80;69.44;97269.38;1653215;86;25736;-73
2022/06/06 03:01:07;;;;;;;15.35;11.50;;;;;;;9.78;69.35;97281.71;1679579;84;25458;-71
2022/06/06 03:03:36;;;;;;;13.55;12.07;;;;;;;9.78;69.47;97284.95;1649739;85;25828;-72
2022/06/06 03:06:23;;;;;;;13.65;12.13;;;;;;;9.79;69.61;97285.23;1650016;85;28064;-73
2022/06/06 03:09:27;;;;;;;13.65;11.78;;;;;;;9.84;69.67;97286.80;1652116;85;25808;-74
2022/06/06 03:12:20;;;;;;;16.85;11.90;;;;;;;9.88;69.62;97289.40;1647644;85;25907;-71
2022/06/06 03:14:57;;;;;;;13.05;11.60;;;;;;;9.89;69.66;97295.10;1576652;90;25801;-71
2022/06/06 03:20:49;;;;;;;16.75;12.88;;;;;;;9.84;69.87;97312.41;1628008;87;27625;-75
2022/06/06 03:23:22;;;;;;;17.80;13.03;;;;;;;9.83;70.11;97309.41;1572994;90;25895;-71
2022/06/06 03:26:09;;;;;;;15.90;13.58;;;;;;;9.86;70.24;97313.04;1539805;92;26001;-71
2022/06/06 03:29:19;;;;;;;13.98;12.55;;;;;;;9.87;70.25;97312.00;1539817;92;26177;-71
2022/06/06 03:32:10;;;;;;;14.33;12.82;;;;;;;9.93;70.31;97313.84;1536805;92;25981;-71
2022/06/06 03:34:53;;;;;;;17.10;13.00;;;;;;;9.96;70.51;97302.65;1539382;92;27411;-71
2022/06/06 03:37:55;;;;;;;15.60;13.88;;;;;;;10.03;70.61;97298.06;1539730;92;25864;-75
2022/06/06 03:41:02;;;;;;;18.32;13.50;;;;;;;10.08;70.84;97297.75;1539551;92;25835;-75
2022/06/06 03:43:52;;;;;;;15.05;13.35;;;;;;;10.17;70.91;97304.27;1540333;91;26233;-71
2022/06/06 03:46:36;;;;;;;15.90;12.80;;;;;;;10.23;70.96;97296.20;1539326;92;25826;-71
2022/06/06 03:49:39;;;;;;;15.68;13.13;;;;;;;10.33;70.99;97301.98;1539776;92;27519;-71
2022/06/06 03:52:14;;;;;;;15.23;13.03;;;;;;;10.42;71.01;97307.44;1552932;90;25940;-73
2022/06/06 03:55:10;;;;;;;15.90;13.30;;;;;;;10.52;71.09;97312.90;1513101;93;25760;-71
2022/06/06 03:57:38;;;;;;;16.30;13.45;;;;;;;10.59;71.14;97312.38;1569593;90;26026;-72
2022/06/06 04:00:12;;;;;;;15.03;13.38;;;;;;;10.69;71.12;97299.25;1596139;84;25573;-72
2022/06/06 04:02:42;;;;;;;14.73;13.22;;;;;;;10.78;71.17;97302.00;1681492;84;27361;-72
2022/06/06 04:05:13;;;;;;;18.52;12.53;;;;;;;10.85;71.10;97302.81;1681393;84;25888;-71
2022/06/06 04:07:40;;;;;;;16.17;13.57;;;;;;;10.92;71.03;97310.34;1680249;84;25853;-71
2022/06/06 04:10:08;;;;;;;16.07;12.55;;;;;;;11.01;71.09;97313.09;1682216;84;25797;-71
2022/06/06 04:12:58;;;;;;;14.55;12.98;;;;;;;11.11;71.14;97303.99;1683306;84;25721;-71
2022/06/06 04:15:52;;;;;;;17.55;13.30;;;;;;;11.18;71.17;97298.05;1681697;84;27414;-70
2022/06/06 04:18:49;;;;;;;14.38;12.70;;;;;;;11.28;71.22;97306.19;1682513;84;25563;-71
2022/06/06 04:21:27;;;;;;;15.93;13.58;;;;;;;11.36;71.15;97305.39;1682945;84;25753;-71
2022/06/06 04:24:02;;;;;;;15.72;13.00;;;;;;;11.47;71.22;97297.13;1677624;84;26187;-70
2022/06/06 04:26:52;;;;;;;15.60;13.53;;;;;;;11.56;71.10;97301.20;1677173;84;25939;-73
2022/06/06 04:29:59;;;;;;;14.65;13.15;;;;;;;11.62;71.18;97293.55;1682951;84;27420;-70
2022/06/06 04:32:55;;;;;;;16.87;13.65;;;;;;;11.74;71.17;97293.66;1677337;84;25827;-70
2022/06/06 04:35:27;;;;;;;15.60;14.00;;;;;;;11.86;71.14;97289.22;1681246;84;25731;-72
2022/06/06 04:38:14;;;;;;;14.60;13.05;;;;;;;11.99;71.16;97289.62;1649188;86;25913;-70
2022/06/06 04:40:58;;;;;;;16.30;13.35;;;;;;;12.10;71.30;97277.53;1652533;86;25887;-71
2022/06/06 04:43:39;;;;;;;19.42;12.95;;;;;;;12.21;71.30;97272.73;1653710;86;27441;-70
2022/06/06 04:46:28;;;;;;;14.15;11.90;;;;;;;12.37;71.39;97279.95;1652404;86;25846;-70
2022/06/06 04:48:57;;;;;;;19.27;12.60;;;;;;;12.49;71.25;97274.92;1652749;86;25734;-70
2022/06/06 04:51:25;;;;;;;14.60;12.82;;;;;;;12.62;71.24;97276.12;1679855;83;25743;-73
2022/06/06 04:53:55;;;;;;;13.65;12.30;;;;;;;12.77;71.33;97277.08;1708156;83;25894;-71
2022/06/06 04:56:23;;;;;;;13.25;11.63;;;;;;;12.91;71.22;97278.56;1707103;83;27594;-71
2022/06/06 04:58:54;;;;;;;12.50;11.20;;;;;;;13.05;71.20;97275.12;1700240;83;25474;-71
2022/06/06 05:01:23;;;;;;;13.43;12.10;;;;;;;13.18;71.28;97279.03;1687527;83;25770;-71
2022/06/06 05:03:50;;;;;;;12.90;11.33;;;;;;;13.33;71.48;97281.31;1701538;83;26357;-72
2022/06/06 05:06:55;;;;;;;11.80;10.60;;;;;;;13.46;71.16;97292.48;1700052;83;25854;-72
2022/06/06 05:09:39;;;;;;;12.45;10.53;;;;;;;13.58;70.72;97287.92;1604233;88;28527;-71
2022/06/06 05:12:37;;;;;;;14.78;10.88;;;;;;;13.76;70.40;97283.77;1601247;88;25834;-72
2022/06/06 05:15:24;;;;;;;11.60;10.23;;;;;;;13.91;70.27;97284.64;1600819;88;25853;-72
2022/06/06 05:18:21;;;;;;;11.00;9.58;;;;;;;14.08;69.58;97287.49;1535797;91;25852;-72
2022/06/06 05:21:08;;;;;;;12.93;10.10;;;;;;;14.23;69.12;97286.48;1536690;91;26020;-72
2022/06/06 05:24:03;;;;;;;12.20;10.95;;;;;;;14.37;69.18;97286.51;1522750;92;27452;-71
2022/06/06 05:27:03;;;;;;;13.43;10.60;;;;;;;14.51;68.92;97287.94;1523441;94;25982;-71
2022/06/06 05:29:51;;;;;;;13.68;10.00;;;;;;;14.65;68.48;97294.77;1522072;93;26180;-71
2022/06/06 05:32:26;;;;;;;10.58;9.53;;;;;;;14.79;67.95;97287.17;1503965;95;25750;-71
2022/06/06 05:35:08;;;;;;;11.38;10.18;;;;;;;14.94;67.72;97283.95;1467553;96;25477;-73
2022/06/06 05:37:55;;;;;;;16.97;10.13;;;;;;;15.08;67.90;97285.31;1483800;95;28280;-72
2022/06/06 05:40:30;;;;;;;13.93;10.58;;;;;;;15.22;67.86;97288.53;1474861;95;25793;-72
2022/06/06 05:43:26;;;;;;;13.00;9.73;;;;;;;15.37;67.52;97293.73;1473301;96;26984;-71
2022/06/06 05:46:21;;;;;;;11.08;9.90;;;;;;;15.50;67.30;97288.52;1470450;95;25945;-72
2022/06/06 05:49:08;;;;;;;13.30;9.75;;;;;;;15.66;66.86;97286.92;1447784;97;25459;-72
2022/06/06 05:52:06;;;;;;;10.10;9.10;;;;;;;15.79;66.75;97282.52;1430033;99;27474;-71
2022/06/06 05:54:57;;;;;;;11.85;9.03;;;;;;;15.93;66.33;97287.93;1432940;99;26033;-72
2022/06/06 05:57:47;;;;;;;10.63;8.85;;;;;;;16.05;65.85;97287.30;1458736;95;25891;-72
2022/06/06 06:00:22;;;;;;;9.95;8.95;;;;;;;16.21;65.59;97287.80;1471649;94;25778;-72
2022/06/06 06:03:23;;;;;;;11.53;8.98;;;;;;;16.37;65.37;97281.22;1472675;95;25982;-73
2022/06/06 06:06:09;;;;;;;10.70;9.30;;;;;;;16.49;65.33;97286.02;1491041;95;28650;-73
2022/06/06 06:09:08;;;;;;;11.15;8.73;;;;;;;16.65;65.10;97287.91;1493457;94;25868;-72
2022/06/06 06:12:04;;;;;;;10.90;8.35;;;;;;;16.82;64.98;97279.66;1469381;92;25808;-72
2022/06/06 06:14:59;;;;;;;8.13;7.33;;;;;;;16.98;64.58;97276.58;1552973;92;25922;-73
2022/06/06 06:17:31;;;;;;;9.68;8.58;;;;;;;17.15;64.10;97273.20;1556081;92;25957;-72
2022/06/06 06:20:09;;;;;;;10.10;8.30;;;;;;;17.33;63.96;97270.68;1548346;92;27480;-72
2022/06/06 06:22:44;;;;;;;8.85;8.05;;;;;;;17.47;63.82;97271.38;1552895;92;25843;-71
2022/06/06 06:25:11;;;;;;;11.03;8.38;;;;;;;17.62;63.30;97278.35;1509338;94;25866;-71
2022/06/06 06:27:39;;;;;;;9.18;8.18;;;;;;;17.77;62.99;97275.48;1482576;94;25903;-73
2022/06/06 06:30:09;;;;;;;9.73;7.87;;;;;;;17.89;62.70;97272.86;1545886;90;25925;-72
2022/06/06 06:33:00;;;;;;;11.80;8.25;;;;;;;18.05;62.47;97275.17;1551359;89;27443;-72
2022/06/06 06:35:43;;;;;;;9.10;6.95;;;;;;;18.15;62.16;97273.88;1575170;91;25901;-75
2022/06/06 06:38:32;;;;;;;8.40;7.62;;;;;;;18.27;61.53;97281.33;1574807;90;25758;-74
2022/06/06 06:41:10;;;;;;;10.82;8.43;;;;;;;18.38;60.97;97282.21;1535991;93;25901;-72
2022/06/06 06:44:03;;;;;;;9.53;7.22;;;;;;;18.53;61.03;97278.75;1520439;93;26095;-75
2022/06/06 06:46:53;;;;;;;8.58;7.20;;;;;;;18.65;60.26;97282.95;1522887;93;27308;-75
2022/06/06 06:49:42;;;;;;;7.60;6.67;;;;;;;18.76;59.78;97278.89;1518751;94;25939;-73
2022/06/06 06:52:48;;;;;;;7.70;7.00;;;;;;;18.87;59.26;97281.95;1549343;92;25919;-73
2022/06/06 06:55:35;;;;;;;7.33;6.67;;;;;;;18.95;58.56;97280.91;1562281;91;26539;-75
2022/06/06 06:58:51;;;;;;;7.70;6.78;;;;;;;19.08;58.33;97280.38;1554393;91;25810;-72
2022/06/06 07:01:22;;;;;;;7.45;6.70;;;;;;;19.22;58.06;97285.35;1556338;91;27470;-72
2022/06/06 07:10:28;;;;;;;7.78;7.05;;;;;;;19.49;56.75;97277.79;1506767;93;26565;-73
2022/06/06 07:13:24;;;;;;;7.47;6.78;;;;;;;19.62;56.35;97275.89;1521046;93;26112;-73
2022/06/06 07:15:55;;;;;;;7.05;6.28;;;;;;;19.75;56.13;97277.28;1522199;93;27413;-73
2022/06/06 07:18:26;;;;;;;7.25;6.50;;;;;;;19.95;55.93;97264.13;1513767;93;25880;-73
2022/06/06 07:20:54;;;;;;;9.93;6.80;;;;;;;20.08;55.75;97267.67;1521535;92;25834;-73
2022/06/06 07:23:23;;;;;;;8.28;6.83;;;;;;;20.21;55.37;97273.14;1517340;93;26557;-74
2022/06/06 07:25:51;;;;;;;8.90;6.80;;;;;;;20.29;55.05;97273.95;1522181;94;26113;-75
2022/06/06 07:28:22;;;;;;;9.25;6.85;;;;;;;20.41;54.80;97271.77;1521390;93;27592;-73
2022/06/06 07:31:23;;;;;;;8.63;6.95;;;;;;;20.55;54.85;97262.41;1554931;91;26197;-73
2022/06/06 07:34:04;;;;;;;7.17;6.55;;;;;;;20.69;54.41;97257.98;1542740;91;25823;-75
2022/06/06 07:36:53;;;;;;;7.33;6.33;;;;;;;20.82;53.95;97260.13;1518490;93;25873;-72
2022/06/06 07:40:03;;;;;;;7.28;6.28;;;;;;;20.91;53.78;97262.56;1540302;92;25359;-73
2022/06/06 07:42:41;;;;;;;6.70;6.20;;;;;;;21.04;53.71;97257.84;1625952;87;26971;-73
2022/06/06 07:45:30;;;;;;;9.10;6.90;;;;;;;21.20;53.20;97258.63;1634250;85;25637;-74
2022/06/06 07:48:11;;;;;;;6.97;5.92;;;;;;;21.28;52.84;97261.31;1773753;79;25751;-74
2022/06/06 07:51:18;;;;;;;7.30;6.67;;;;;;;21.59;52.20;97264.70;1757547;80;25784;-74
2022/06/06 07:53:54;;;;;;;7.78;7.00;;;;;;;21.59;52.20;97264.70;1711535;83;25773;-73
2022/06/06 07:56:38;;;;;;;7.53;6.83;;;;;;;21.86;51.97;97265.03;1683205;83;28422;-77
2022/06/06 07:59:27;;;;;;;7.80;6.78;;;;;;;21.97;51.31;97241.06;1659107;85;25769;-75
2022/06/06 08:02:03;;;;;;;7.85;6.75;;;;;;;22.38;51.17;97264.33;1670353;85;25741;-74
2022/06/06 08:04:47;;;;;;;6.70;6.15;;;;;;;22.81;50.95;97261.70;1676843;85;25911;-74
2022/06/06 08:07:31;;;;;;;7.15;5.83;;;;;;;23.23;50.93;97261.70;1673847;85;26039;-73
2022/06/06 08:10:33;;;;;;;7.15;6.47;;;;;;;23.69;50.61;97256.93;1669234;85;27486;-73
2022/06/06 08:13:28;;;;;;;6.85;5.92;;;;;;;24.16;50.25;97253.67;1671878;84;35433;-74
2022/06/06 08:16:28;;;;;;;7.83;6.45;;;;;;;24.66;49.34;97252.78;1661085;85;25833;-74
2022/06/06 08:19:37;;;;;;;6.78;6.08;;;;;;;25.07;48.65;97251.44;1667401;85;25903;-76
2022/06/06 08:22:06;;;;;;;6.83;6.00;;;;;;;25.52;48.16;97247.41;1663771;84;26595;-76
2022/06/06 08:24:40;;;;;;;6.15;5.65;;;;;;;25.90;47.29;97241.58;1685605;82;27478;-73
2022/06/06 08:27:14;;;;;;;15.08;5.92;;;;;;;26.17;46.64;97245.03;1725614;82;26653;-75
2022/06/06 08:29:45;;;;;;;5.85;5.35;;;;;;;26.36;45.84;97246.78;1727956;82;25695;-74
2022/06/06 08:32:13;;;;;;;7.47;5.12;;;;;;;26.28;44.69;97243.41;1722740;82;26654;-78
2022/06/06 08:34:41;;;;;;;5.53;5.12;;;;;;;26.25;44.41;97237.09;1724774;82;26498;-75
2022/06/06 08:37:46;;;;;;;6.22;4.90;;;;;;;26.36;44.48;97239.86;1754024;81;28238;-75
2022/06/06 08:40:36;;;;;;;5.97;5.37;;;;;;;26.69;43.86;97248.66;1754696;80;25682;-73
2022/06/06 08:43:23;;;;;;;5.55;5.05;;;;;;;27.19;43.30;97248.62;1748255;81;25793;-74
2022/06/06 08:46:30;;;;;;;6.58;5.58;;;;;;;27.68;42.71;97246.59;1740543;81;26495;-75
2022/06/06 08:50:44;;;;;;;5.62;5.05;;;;;;;27.90;41.89;97249.20;1677905;84;25820;-76
2022/06/06 08:51:51;;;;;;;5.45;4.97;;;;;;;28.10;41.21;97253.28;1669780;85;27518;-76
2022/06/06 08:54:47;;;;;;;7.58;5.35;;;;;;;28.28;41.12;97247.96;1598858;87;25509;-75
2022/06/06 08:57:47;;;;;;;5.97;4.58;;;;;;;28.59;41.01;97246.34;1627988;87;36357;-75
2022/06/06 09:00:31;;;;;;;5.70;5.08;;;;;;;28.68;40.42;97240.75;1590195;88;26301;-75
2022/06/06 09:03:25;;;;;;;6.05;5.25;;;;;;;28.78;40.04;97234.86;1541981;91;25850;-75
2022/06/06 09:05:57;;;;;;;5.20;4.80;;;;;;;28.88;39.33;97232.28;1545906;92;27528;-75
2022/06/06 09:08:39;;;;;;;;;;;;;;;29.10;39.05;97235.38;1540604;92;25876;-75
2022/06/06 09:11:44;;;;;;;7.00;4.83;;;;;;;29.38;37.45;97232.36;1532274;92;25791;-74
2022/06/06 09:14:52;;;;;;;6.10;4.33;;;;;;;29.56;38.54;97231.09;1542848;92;25971;-75
2022/06/06 09:17:47;;;;;;;5.55;4.70;;;;;;;29.92;37.92;97233.83;1538416;92;25902;-79
2022/06/06 09:20:52;;;;;;;4.83;4.37;;;;;;;30.20;37.18;97239.64;1548618;91;28391;-76
2022/06/06 09:23:55;;;;;;;8.43;4.78;;;;;;;30.38;36.64;97230.78;1553344;91;25945;-74
2022/06/06 09:27:04;;;;;;;6.10;4.30;;;;;;;30.71;36.34;97221.58;1553938;91;25958;-75
2022/06/06 09:30:08;;;;;;;4.90;4.47;;;;;;;30.89;36.15;97225.80;1547546;91;25765;-76
2022/06/06 09:33:14;;;;;;;5.17;4.67;;;;;;;30.92;35.36;97227.86;1548831;91;25966;-75
2022/06/06 09:36:04;;;;;;;6.17;4.60;;;;;;;30.79;35.26;97217.89;1549422;91;28263;-75
2022/06/06 09:39:09;;;;;;;4.80;4.40;;;;;;;30.60;35.52;97217.05;1546263;91;26087;-77
2022/06/06 09:41:41;;;;;;;6.22;4.72;;;;;;;30.84;35.06;97206.50;1574426;90;26019;-75
2022/06/06 09:44:34;;;;;;;4.60;4.17;;;;;;;31.18;34.72;97200.25;1573352;91;25865;-75
2022/06/06 09:47:38;;;;;;;4.55;4.20;;;;;;;31.44;34.19;97206.25;1571247;90;25825;-75
2022/06/06 09:50:27;;;;;;;4.83;4.25;;;;;;;31.45;34.51;97205.91;1576148;87;27718;-76
2022/06/06 09:53:26;;;;;;;5.10;4.60;;;;;;;31.79;33.79;97205.14;1611347;87;25522;-77
2022/06/06 09:59:40;;;;;;;4.22;3.92;;;;;;;32.16;33.00;97203.02;1532383;92;26947;-75
2022/06/06 10:02:33;;;;;;;5.28;4.72;;;;;;;31.89;32.67;97198.24;1537133;92;25751;-79
2022/06/06 10:05:26;;;;;;;4.60;4.20;;;;;;;31.79;32.42;97193.40;1522789;94;27322;-75
2022/06/06 10:08:44;;;;;;;4.65;4.25;;;;;;;31.44;32.44;97194.52;1469767;96;25940;-77
2022/06/06 10:11:36;;;;;;;4.50;4.10;;;;;;;31.32;32.20;97188.15;1457123;97;25850;-77
2022/06/06 10:14:28;;;;;;;4.17;3.87;;;;;;;31.46;32.26;97185.80;1502735;95;25783;-80
2022/06/06 10:17:09;;;;;;;4.20;3.90;;;;;;;31.76;32.01;97181.55;1500204;95;25938;-78
2022/06/06 10:19:52;;;;;;;4.40;4.08;;;;;;;32.01;32.26;97186.44;1502336;95;27541;-75
2022/06/06 10:22:45;;;;;;;4.75;3.92;;;;;;;32.23;32.03;97180.92;1398757;101;25583;-75
2022/06/06 10:25:37;;;;;;;4.58;4.15;;;;;;;32.34;31.73;97175.03;1398393;100;25975;-77
2022/06/06 10:28:31;;;;;;;5.35;4.12;;;;;;;32.49;31.92;97172.81;1375933;103;25800;-76
2022/06/06 10:31:09;;;;;;;3.80;3.47;;;;;;;32.67;31.84;97166.89;1378290;103;25877;-77
2022/06/06 10:34:14;;;;;;;5.65;4.12;;;;;;;32.87;31.75;97168.02;1379916;102;27546;-76
2022/06/06 10:37:24;;;;;;;6.62;4.00;;;;;;;32.88;30.86;97165.45;1427702;99;26028;-75
2022/06/06 10:40:36;;;;;;;4.87;4.12;;;;;;;32.48;30.75;97159.23;1420953;99;25953;-75
2022/06/06 10:43:29;;;;;;;4.45;3.85;;;;;;;32.58;30.78;97160.67;1425824;99;25700;-76
2022/06/06 10:46:19;;;;;;;4.05;3.77;;;;;;;32.56;30.28;97164.64;1440007;99;26266;-79
2022/06/06 10:49:03;;;;;;;4.28;3.98;;;;;;;32.42;30.59;97160.08;1421504;100;29033;-76
2022/06/06 10:51:59;;;;;;;4.22;3.65;;;;;;;32.39;30.19;97151.01;1400778;102;25882;-80
2022/06/06 10:54:58;;;;;;;4.25;3.92;;;;;;;32.40;30.56;97156.83;1419853;100;25825;-75
2022/06/06 10:57:47;;;;;;;4.92;3.72;;;;;;;32.62;30.59;97150.37;1400551;101;25951;-79
2022/06/06 11:00:40;;;;;;;4.53;4.05;;;;;;;32.57;30.02;97144.50;1462456;94;25833;-76
2022/06/06 11:03:39;;;;;;;4.20;3.80;;;;;;;32.14;30.14;97150.90;1470506;96;27704;-76
2022/06/06 11:06:31;;;;;;;4.70;4.30;;;;;;;31.78;29.87;97144.91;1468629;95;25928;-76
2022/06/06 11:09:23;;;;;;;8.30;4.53;;;;;;;31.44;30.71;97149.08;1505412;94;25805;-79
2022/06/06 11:12:02;;;;;;;;;;;;;;;31.24;30.77;97148.67;1506725;93;25930;-75
2022/06/06 11:14:41;;;;;;;4.28;3.98;;;;;;;31.14;30.76;97143.01;1507645;95;25907;-75
2022/06/06 11:17:52;;;;;;;4.60;4.30;;;;;;;31.12;31.50;97146.14;1505659;94;28416;-73
2022/06/06 11:20:36;;;;;;;4.72;4.17;;;;;;;31.14;31.44;97141.03;1508564;95;25965;-77
2022/06/06 11:23:22;;;;;;;4.67;4.28;;;;;;;31.19;31.67;97137.75;1504120;93;25710;-76
2022/06/06 11:26:21;;;;;;;5.05;4.50;;;;;;;31.12;31.36;97140.56;1556051;88;26528;-74
2022/06/06 11:29:11;;;;;;;4.53;4.15;;;;;;;31.22;31.57;97138.45;1595683;88;25791;-74
2022/06/06 11:32:16;;;;;;;4.55;4.20;;;;;;;31.38;31.42;97139.35;1598547;88;28297;-74
2022/06/06 11:34:51;;;;;;;4.83;4.30;;;;;;;31.47;31.18;97126.87;1598210;88;25310;-77
2022/06/06 11:38:03;;;;;;;4.08;3.87;;;;;;;31.46;30.88;97125.84;1592817;88;25918;-74
2022/06/06 11:40:51;;;;;;;;;;;;;;;31.60;30.87;97129.05;1664185;83;25722;-77
2022/06/06 11:43:57;;;;;;;4.00;3.70;;;;;;;31.70;30.25;97122.98;1699835;83;25608;-74
2022/06/06 11:46:41;;;;;;;6.33;3.80;;;;;;;31.67;31.00;97118.11;1680259;83;27513;-75
2022/06/06 11:49:48;;;;;;;4.37;3.98;;;;;;;31.66;30.34;97118.45;1690159;83;25772;-75
2022/06/06 11:52:46;;;;;;;4.33;3.92;;;;;;;31.63;30.52;97114.98;1696896;82;25820;-74
2022/06/06 11:55:42;;;;;;;3.80;3.52;;;;;;;31.78;30.21;97115.03;1702829;83;25793;-75
2022/06/06 11:58:22;;;;;;;6.33;3.77;;;;;;;32.00;29.81;97115.64;1695808;83;25784;-74
2022/06/06 12:01:30;;;;;;;4.03;3.72;;;;;;;32.06;29.44;97115.59;1676971;83;27425;-77
2022/06/06 12:04:24;;;;;;;6.22;4.00;;;;;;;31.93;29.80;97114.03;1627942;86;25846;-74
2022/06/06 12:07:17;;;;;;;5.35;3.65;;;;;;;32.05;30.28;97106.98;1622812;86;25799;-75
2022/06/06 12:10:01;;;;;;;4.92;3.83;;;;;;;31.85;28.74;97108.27;1616023;87;26616;-75
2022/06/06 12:12:58;;;;;;;4.33;4.03;;;;;;;31.70;29.58;97099.27;1613668;87;25897;-75
2022/06/06 12:15:53;;;;;;;4.03;3.65;;;;;;;31.79;29.42;97101.31;1607986;87;27601;-74
2022/06/06 12:18:44;;;;;;;5.80;3.75;;;;;;;31.78;28.90;97098.29;1564804;90;25782;-74
2022/06/06 12:21:36;;;;;;;6.53;3.80;;;;;;;31.83;28.79;97098.05;1570164;90;25971;-74
2022/06/06 12:24:36;;;;;;;3.95;3.60;;;;;;;32.02;29.27;97090.95;1595985;88;25780;-75
2022/06/06 12:27:27;;;;;;;5.08;3.65;;;;;;;32.07;29.27;97097.09;1560860;91;25873;-76
2022/06/06 12:30:37;;;;;;;3.80;3.50;;;;;;;31.85;28.37;97090.13;1562737;91;32541;-74
2022/06/06 12:33:12;;;;;;;3.92;3.60;;;;;;;31.80;29.11;97090.37;1573532;89;25520;-73
2022/06/06 12:35:50;;;;;;;4.25;3.80;;;;;;;31.91;29.08;97085.66;1573925;89;25789;-75
2022/06/06 12:38:48;;;;;;;3.80;3.45;;;;;;;32.06;29.46;97075.11;1574225;89;26381;-75
2022/06/06 12:41:34;;;;;;;4.83;3.62;;;;;;;32.10;28.79;97074.63;1569361;90;26035;-74
2022/06/06 12:44:12;;;;;;;3.65;3.25;;;;;;;32.10;28.57;97078.81;1577203;90;27507;-75
2022/06/06 12:47:01;;;;;;;3.83;3.47;;;;;;;32.18;28.62;97070.88;1629408;87;25850;-76
2022/06/06 12:49:45;;;;;;;4.47;3.85;;;;;;;32.20;28.60;97068.53;1627687;87;25841;-75
2022/06/06 12:52:50;;;;;;;4.97;3.80;;;;;;;32.23;28.11;97066.42;1627597;87;25922;-76
2022/06/06 12:55:36;;;;;;;3.80;3.50;;;;;;;32.14;28.55;97059.57;1629412;86;25486;-74
2022/06/06 12:58:33;;;;;;;13.22;3.75;;;;;;;32.09;28.42;97045.09;1635479;87;27442;-73
2022/06/06 13:04:18;;;;;;;3.75;3.45;;;;;;;32.18;28.10;97045.74;1522668;93;25856;-73